Norse, Texas
Current Conditions -  °F | °C
As of 11:51 AM on Thursday 30 Oct 2014 (Local Time) from KACT Reporting Station
Scattered Clouds Scattered Clouds  
Wind Chill: 69°   Ceiling: Unl
Heat Index: 69°   Visibility: 10mi
Dew Point: 47°   Wind: 9mph
Humidity: 45%   Direction: 150°SSE
Pressure: 30.17"   Gusts: NA
Location:  31.7854°N, 97.5786°W
Report Text: KACT 301651Z 15008KT 10SM SCT055 SCT075 21/08 A3017 RMK AO2 SLP211 T02060083
Loading
Personal Weather Stations






























Interactive Weather Map
Tropical Storm Tracking
New forecast layout! Learn more

10-Day Weather Forecast

Advertisements
Track Severe Weather on mobile